sensor_id;sensor_type;location;lat;lon;timestamp;temperature;humidity
871;DHT22;422;51.280;7.236;2023-11-21T00:00:54;6.80;99.90
871;DHT22;422;51.280;7.236;2023-11-21T00:03:21;6.90;99.90
871;DHT22;422;51.280;7.236;2023-11-21T00:05:49;6.80;99.90
871;DHT22;422;51.280;7.236;2023-11-21T00:08:16;6.80;99.90
871;DHT22;422;51.280;7.236;2023-11-21T00:10:46;6.80;99.90
871;DHT22;422;51.280;7.236;2023-11-21T00:13:14;6.90;99.90
871;DHT22;422;51.280;7.236;2023-11-21T00:15:41;6.90;99.90
871;DHT22;422;51.280;7.236;2023-11-21T00:18:09;6.90;99.90
871;DHT22;422;51.280;7.236;2023-11-21T00:20:36;6.90;99.90
871;DHT22;422;51.280;7.236;2023-11-21T00:23:03;6.90;99.90
871;DHT22;422;51.280;7.236;2023-11-21T00:25:31;6.90;99.90
871;DHT22;422;51.280;7.236;2023-11-21T00:27:59;6.90;99.90
871;DHT22;422;51.280;7.236;2023-11-21T00:30:27;6.90;99.90
871;DHT22;422;51.280;7.236;2023-11-21T00:32:55;6.90;99.90
871;DHT22;422;51.280;7.236;2023-11-21T00:35:22;6.80;99.90
871;DHT22;422;51.280;7.236;2023-11-21T00:37:50;6.80;99.90
871;DHT22;422;51.280;7.236;2023-11-21T00:40:18;6.70;99.90
871;DHT22;422;51.280;7.236;2023-11-21T00:42:46;6.70;99.90
871;DHT22;422;51.280;7.236;2023-11-21T00:45:15;6.70;99.90
871;DHT22;422;51.280;7.236;2023-11-21T00:47:43;6.70;99.90
871;DHT22;422;51.280;7.236;2023-11-21T00:50:10;6.70;99.90
871;DHT22;422;51.280;7.236;2023-11-21T00:52:37;6.70;99.90
871;DHT22;422;51.280;7.236;2023-11-21T00:55:05;6.70;99.90
871;DHT22;422;51.280;7.236;2023-11-21T00:57:36;6.70;99.90
871;DHT22;422;51.280;7.236;2023-11-21T01:00:05;6.70;99.90
871;DHT22;422;51.280;7.236;2023-11-21T01:02:40;6.80;99.90
871;DHT22;422;51.280;7.236;2023-11-21T01:05:08;6.90;99.90
871;DHT22;422;51.280;7.236;2023-11-21T01:07:36;6.90;99.90
871;DHT22;422;51.280;7.236;2023-11-21T01:10:04;6.90;99.90
871;DHT22;422;51.280;7.236;2023-11-21T01:12:34;7.00;99.90
871;DHT22;422;51.280;7.236;2023-11-21T01:15:01;7.00;99.90
871;DHT22;422;51.280;7.236;2023-11-21T01:17:29;7.00;99.90
871;DHT22;422;51.280;7.236;2023-11-21T01:19:58;7.00;99.90
871;DHT22;422;51.280;7.236;2023-11-21T01:22:26;6.90;99.90
871;DHT22;422;51.280;7.236;2023-11-21T01:24:54;6.90;99.90
871;DHT22;422;51.280;7.236;2023-11-21T01:27:21;6.90;99.90
871;DHT22;422;51.280;7.236;2023-11-21T01:29:49;6.90;99.90
871;DHT22;422;51.280;7.236;2023-11-21T01:32:19;6.90;99.90
871;DHT22;422;51.280;7.236;2023-11-21T01:34:47;6.90;99.90
871;DHT22;422;51.280;7.236;2023-11-21T01:37:16;6.90;99.90
871;DHT22;422;51.280;7.236;2023-11-21T01:39:43;6.80;99.90
871;DHT22;422;51.280;7.236;2023-11-21T01:42:11;6.80;99.90
871;DHT22;422;51.280;7.236;2023-11-21T01:44:39;6.80;99.90
871;DHT22;422;51.280;7.236;2023-11-21T01:47:06;6.80;99.90
871;DHT22;422;51.280;7.236;2023-11-21T01:49:35;6.80;99.90
871;DHT22;422;51.280;7.236;2023-11-21T01:52:03;6.80;99.90
871;DHT22;422;51.280;7.236;2023-11-21T01:54:32;6.80;99.90
871;DHT22;422;51.280;7.236;2023-11-21T01:57:03;6.80;99.90
871;DHT22;422;51.280;7.236;2023-11-21T01:59:34;6.80;99.90
871;DHT22;422;51.280;7.236;2023-11-21T02:02:02;6.80;99.90
871;DHT22;422;51.280;7.236;2023-11-21T02:04:31;6.90;99.90
871;DHT22;422;51.280;7.236;2023-11-21T02:06:58;6.90;99.90
871;DHT22;422;51.280;7.236;2023-11-21T02:09:26;6.90;99.90
871;DHT22;422;51.280;7.236;2023-11-21T02:11:56;6.90;99.90
871;DHT22;422;51.280;7.236;2023-11-21T02:14:25;7.00;99.90
871;DHT22;422;51.280;7.236;2023-11-21T02:16:54;7.00;99.90
871;DHT22;422;51.280;7.236;2023-11-21T02:19:23;7.00;99.90
871;DHT22;422;51.280;7.236;2023-11-21T02:21:52;7.00;99.90
871;DHT22;422;51.280;7.236;2023-11-21T02:24:22;7.00;99.90
871;DHT22;422;51.280;7.236;2023-11-21T02:26:49;6.90;99.90
871;DHT22;422;51.280;7.236;2023-11-21T02:29:17;6.90;99.90
871;DHT22;422;51.280;7.236;2023-11-21T02:31:47;6.90;99.90
871;DHT22;422;51.280;7.236;2023-11-21T02:34:15;6.90;99.90
871;DHT22;422;51.280;7.236;2023-11-21T02:36:43;7.00;99.90
871;DHT22;422;51.280;7.236;2023-11-21T02:39:10;7.10;99.90
871;DHT22;422;51.280;7.236;2023-11-21T02:41:40;7.10;99.90
871;DHT22;422;51.280;7.236;2023-11-21T02:44:07;7.10;99.90
871;DHT22;422;51.280;7.236;2023-11-21T02:46:36;7.10;99.90
871;DHT22;422;51.280;7.236;2023-11-21T02:49:05;7.10;99.90
871;DHT22;422;51.280;7.236;2023-11-21T02:51:33;7.20;99.90
871;DHT22;422;51.280;7.236;2023-11-21T02:54:00;7.20;99.90
871;DHT22;422;51.280;7.236;2023-11-21T02:56:31;7.20;99.90
871;DHT22;422;51.280;7.236;2023-11-21T02:59:00;7.10;99.90
871;DHT22;422;51.280;7.236;2023-11-21T03:01:28;7.10;99.90
871;DHT22;422;51.280;7.236;2023-11-21T03:03:55;7.00;99.90
871;DHT22;422;51.280;7.236;2023-11-21T03:06:22;7.00;99.90
871;DHT22;422;51.280;7.236;2023-11-21T03:08:50;7.00;99.90
871;DHT22;422;51.280;7.236;2023-11-21T03:11:17;7.10;99.90
871;DHT22;422;51.280;7.236;2023-11-21T03:13:45;7.00;99.90
871;DHT22;422;51.280;7.236;2023-11-21T03:16:15;7.00;99.90
871;DHT22;422;51.280;7.236;2023-11-21T03:18:42;7.00;99.90
871;DHT22;422;51.280;7.236;2023-11-21T03:21:10;7.00;99.90
871;DHT22;422;51.280;7.236;2023-11-21T03:23:37;7.00;99.90
871;DHT22;422;51.280;7.236;2023-11-21T03:26:05;7.00;99.90
871;DHT22;422;51.280;7.236;2023-11-21T03:28:34;7.00;99.90
871;DHT22;422;51.280;7.236;2023-11-21T03:31:01;7.00;99.90
871;DHT22;422;51.280;7.236;2023-11-21T03:33:30;7.10;99.90
871;DHT22;422;51.280;7.236;2023-11-21T03:35:57;7.10;99.90
871;DHT22;422;51.280;7.236;2023-11-21T03:38:24;7.00;99.90
871;DHT22;422;51.280;7.236;2023-11-21T03:40:51;7.10;99.90
871;DHT22;422;51.280;7.236;2023-11-21T03:43:19;7.10;99.90
871;DHT22;422;51.280;7.236;2023-11-21T03:45:46;7.10;99.90
871;DHT22;422;51.280;7.236;2023-11-21T03:48:14;7.10;99.90
871;DHT22;422;51.280;7.236;2023-11-21T03:50:43;7.10;99.90
871;DHT22;422;51.280;7.236;2023-11-21T03:53:10;7.10;99.90
871;DHT22;422;51.280;7.236;2023-11-21T03:55:37;7.10;99.90
871;DHT22;422;51.280;7.236;2023-11-21T03:58:05;7.00;99.90
871;DHT22;422;51.280;7.236;2023-11-21T04:00:32;7.00;99.90
871;DHT22;422;51.280;7.236;2023-11-21T04:02:59;7.10;99.90
871;DHT22;422;51.280;7.236;2023-11-21T04:05:26;7.10;99.90
871;DHT22;422;51.280;7.236;2023-11-21T04:07:55;7.10;99.90
871;DHT22;422;51.280;7.236;2023-11-21T04:10:22;7.10;99.90
871;DHT22;422;51.280;7.236;2023-11-21T04:12:49;7.00;99.90
871;DHT22;422;51.280;7.236;2023-11-21T04:15:17;7.00;99.90
871;DHT22;422;51.280;7.236;2023-11-21T04:17:44;7.00;99.90
871;DHT22;422;51.280;7.236;2023-11-21T04:20:11;7.00;99.90
871;DHT22;422;51.280;7.236;2023-11-21T04:22:39;7.00;99.90
871;DHT22;422;51.280;7.236;2023-11-21T04:25:11;7.10;99.90
871;DHT22;422;51.280;7.236;2023-11-21T04:27:40;7.10;99.90
871;DHT22;422;51.280;7.236;2023-11-21T04:30:10;7.10;99.90
871;DHT22;422;51.280;7.236;2023-11-21T04:32:37;7.10;99.90
871;DHT22;422;51.280;7.236;2023-11-21T04:35:05;7.20;99.90
871;DHT22;422;51.280;7.236;2023-11-21T04:37:34;7.20;99.90
871;DHT22;422;51.280;7.236;2023-11-21T04:40:01;7.20;99.90
871;DHT22;422;51.280;7.236;2023-11-21T04:42:35;7.10;99.90
871;DHT22;422;51.280;7.236;2023-11-21T04:45:03;7.10;99.90
871;DHT22;422;51.280;7.236;2023-11-21T04:47:34;7.00;99.90
871;DHT22;422;51.280;7.236;2023-11-21T04:50:01;7.00;99.90
871;DHT22;422;51.280;7.236;2023-11-21T04:52:29;7.00;99.90
871;DHT22;422;51.280;7.236;2023-11-21T04:54:56;7.00;99.90
871;DHT22;422;51.280;7.236;2023-11-21T04:57:24;7.00;99.90
871;DHT22;422;51.280;7.236;2023-11-21T04:59:53;7.00;99.90
871;DHT22;422;51.280;7.236;2023-11-21T05:02:20;7.00;99.90
871;DHT22;422;51.280;7.236;2023-11-21T05:04:47;7.00;99.90
871;DHT22;422;51.280;7.236;2023-11-21T05:07:15;7.00;99.90
871;DHT22;422;51.280;7.236;2023-11-21T05:09:44;7.00;99.90
871;DHT22;422;51.280;7.236;2023-11-21T05:12:14;7.00;99.90
871;DHT22;422;51.280;7.236;2023-11-21T05:14:41;7.00;99.90
871;DHT22;422;51.280;7.236;2023-11-21T05:17:10;7.00;99.90
871;DHT22;422;51.280;7.236;2023-11-21T05:19:40;7.10;99.90
871;DHT22;422;51.280;7.236;2023-11-21T05:22:07;7.10;99.90
871;DHT22;422;51.280;7.236;2023-11-21T05:24:34;7.10;99.90
871;DHT22;422;51.280;7.236;2023-11-21T05:27:02;7.10;99.90
871;DHT22;422;51.280;7.236;2023-11-21T05:29:29;7.10;99.90
871;DHT22;422;51.280;7.236;2023-11-21T05:31:56;7.10;99.90
871;DHT22;422;51.280;7.236;2023-11-21T05:34:25;7.00;99.90
871;DHT22;422;51.280;7.236;2023-11-21T05:36:52;7.00;99.90
871;DHT22;422;51.280;7.236;2023-11-21T05:39:19;7.00;99.90
871;DHT22;422;51.280;7.236;2023-11-21T05:41:47;7.00;99.90
871;DHT22;422;51.280;7.236;2023-11-21T05:44:15;6.90;99.90
871;DHT22;422;51.280;7.236;2023-11-21T05:46:42;6.90;99.90
871;DHT22;422;51.280;7.236;2023-11-21T05:49:10;6.80;99.90
871;DHT22;422;51.280;7.236;2023-11-21T05:51:38;6.80;99.90
871;DHT22;422;51.280;7.236;2023-11-21T05:54:06;6.70;99.90
871;DHT22;422;51.280;7.236;2023-11-21T05:56:33;6.70;99.90
871;DHT22;422;51.280;7.236;2023-11-21T05:59:01;6.70;99.90
871;DHT22;422;51.280;7.236;2023-11-21T06:01:29;6.80;99.90
871;DHT22;422;51.280;7.236;2023-11-21T06:03:56;6.80;99.90
871;DHT22;422;51.280;7.236;2023-11-21T06:06:23;6.80;99.90
871;DHT22;422;51.280;7.236;2023-11-21T06:08:53;6.80;99.90
871;DHT22;422;51.280;7.236;2023-11-21T06:11:21;6.80;99.90
871;DHT22;422;51.280;7.236;2023-11-21T06:13:49;6.80;99.90
871;DHT22;422;51.280;7.236;2023-11-21T06:16:18;6.80;99.90
871;DHT22;422;51.280;7.236;2023-11-21T06:18:46;6.90;99.90
871;DHT22;422;51.280;7.236;2023-11-21T06:21:13;6.90;99.90
871;DHT22;422;51.280;7.236;2023-11-21T06:23:42;6.90;99.90
871;DHT22;422;51.280;7.236;2023-11-21T06:26:11;6.90;99.90
871;DHT22;422;51.280;7.236;2023-11-21T06:28:38;6.90;99.90
871;DHT22;422;51.280;7.236;2023-11-21T06:31:06;7.00;99.90
871;DHT22;422;51.280;7.236;2023-11-21T06:33:33;7.10;99.90
871;DHT22;422;51.280;7.236;2023-11-21T06:36:00;7.10;99.90
871;DHT22;422;51.280;7.236;2023-11-21T06:38:28;7.10;99.90
871;DHT22;422;51.280;7.236;2023-11-21T06:40:58;7.10;99.90
871;DHT22;422;51.280;7.236;2023-11-21T06:43:29;7.10;99.90
871;DHT22;422;51.280;7.236;2023-11-21T06:45:57;7.10;99.90
871;DHT22;422;51.280;7.236;2023-11-21T06:48:25;7.00;99.90
871;DHT22;422;51.280;7.236;2023-11-21T06:50:52;6.90;99.90
871;DHT22;422;51.280;7.236;2023-11-21T06:53:19;7.00;99.90
871;DHT22;422;51.280;7.236;2023-11-21T06:55:47;6.90;99.90
871;DHT22;422;51.280;7.236;2023-11-21T06:58:14;7.00;99.90
871;DHT22;422;51.280;7.236;2023-11-21T07:00:43;7.00;99.90
871;DHT22;422;51.280;7.236;2023-11-21T07:03:12;7.10;99.90
871;DHT22;422;51.280;7.236;2023-11-21T07:05:39;7.10;99.90
871;DHT22;422;51.280;7.236;2023-11-21T07:08:07;7.10;99.90
871;DHT22;422;51.280;7.236;2023-11-21T07:10:34;7.20;99.90
871;DHT22;422;51.280;7.236;2023-11-21T07:13:02;7.20;99.90
871;DHT22;422;51.280;7.236;2023-11-21T07:15:29;7.20;99.90
871;DHT22;422;51.280;7.236;2023-11-21T07:17:58;7.20;99.90
871;DHT22;422;51.280;7.236;2023-11-21T07:20:25;7.30;99.90
871;DHT22;422;51.280;7.236;2023-11-21T07:22:53;7.30;99.90
871;DHT22;422;51.280;7.236;2023-11-21T07:25:21;7.30;99.90
871;DHT22;422;51.280;7.236;2023-11-21T07:27:49;7.40;99.90
871;DHT22;422;51.280;7.236;2023-11-21T07:30:16;7.40;99.90
871;DHT22;422;51.280;7.236;2023-11-21T07:32:43;7.40;99.90
871;DHT22;422;51.280;7.236;2023-11-21T07:35:13;7.40;99.90
871;DHT22;422;51.280;7.236;2023-11-21T07:37:41;7.50;99.90
871;DHT22;422;51.280;7.236;2023-11-21T07:40:09;7.40;99.90
871;DHT22;422;51.280;7.236;2023-11-21T07:42:37;7.50;99.90
871;DHT22;422;51.280;7.236;2023-11-21T07:45:06;7.50;99.90
871;DHT22;422;51.280;7.236;2023-11-21T07:47:34;7.50;99.90
871;DHT22;422;51.280;7.236;2023-11-21T07:50:02;7.60;99.90
871;DHT22;422;51.280;7.236;2023-11-21T07:52:31;7.60;99.90
871;DHT22;422;51.280;7.236;2023-11-21T07:54:58;7.60;99.90
871;DHT22;422;51.280;7.236;2023-11-21T07:57:26;7.60;99.90
871;DHT22;422;51.280;7.236;2023-11-21T07:59:53;7.70;99.90
871;DHT22;422;51.280;7.236;2023-11-21T08:02:21;7.70;99.90
871;DHT22;422;51.280;7.236;2023-11-21T08:04:48;7.70;99.90
871;DHT22;422;51.280;7.236;2023-11-21T08:07:17;7.80;99.90
871;DHT22;422;51.280;7.236;2023-11-21T08:09:45;7.80;99.90
871;DHT22;422;51.280;7.236;2023-11-21T08:12:15;7.80;99.90
871;DHT22;422;51.280;7.236;2023-11-21T08:14:43;7.80;99.90
871;DHT22;422;51.280;7.236;2023-11-21T08:17:10;7.80;99.90
871;DHT22;422;51.280;7.236;2023-11-21T08:19:37;7.80;99.90
871;DHT22;422;51.280;7.236;2023-11-21T08:22:05;7.80;99.90
871;DHT22;422;51.280;7.236;2023-11-21T08:24:33;7.90;99.90
871;DHT22;422;51.280;7.236;2023-11-21T08:27:02;7.90;99.90
871;DHT22;422;51.280;7.236;2023-11-21T08:29:30;8.00;99.90
871;DHT22;422;51.280;7.236;2023-11-21T08:31:58;8.10;99.90
871;DHT22;422;51.280;7.236;2023-11-21T08:34:25;8.10;99.90
871;DHT22;422;51.280;7.236;2023-11-21T08:36:54;8.10;99.90
871;DHT22;422;51.280;7.236;2023-11-21T08:39:21;8.00;99.90
871;DHT22;422;51.280;7.236;2023-11-21T08:41:50;8.10;99.90
871;DHT22;422;51.280;7.236;2023-11-21T08:44:18;8.20;99.90
871;DHT22;422;51.280;7.236;2023-11-21T08:46:48;8.30;99.90
871;DHT22;422;51.280;7.236;2023-11-21T08:49:16;8.30;99.90
871;DHT22;422;51.280;7.236;2023-11-21T08:51:44;8.40;99.90
871;DHT22;422;51.280;7.236;2023-11-21T08:54:12;8.40;99.90
871;DHT22;422;51.280;7.236;2023-11-21T08:56:40;8.30;99.90
871;DHT22;422;51.280;7.236;2023-11-21T08:59:08;8.40;99.90
871;DHT22;422;51.280;7.236;2023-11-21T09:01:37;8.50;99.90
871;DHT22;422;51.280;7.236;2023-11-21T09:04:05;8.50;99.90
871;DHT22;422;51.280;7.236;2023-11-21T09:06:33;8.60;99.90
871;DHT22;422;51.280;7.236;2023-11-21T09:09:01;8.70;99.90
871;DHT22;422;51.280;7.236;2023-11-21T09:11:30;8.70;99.90
871;DHT22;422;51.280;7.236;2023-11-21T09:13:59;8.70;99.90
871;DHT22;422;51.280;7.236;2023-11-21T09:16:26;8.70;99.90
871;DHT22;422;51.280;7.236;2023-11-21T09:18:55;8.80;99.90
871;DHT22;422;51.280;7.236;2023-11-21T09:21:22;8.80;99.90
871;DHT22;422;51.280;7.236;2023-11-21T09:23:51;8.90;99.90
871;DHT22;422;51.280;7.236;2023-11-21T09:26:18;9.00;99.90
871;DHT22;422;51.280;7.236;2023-11-21T09:28:45;9.00;99.90
871;DHT22;422;51.280;7.236;2023-11-21T09:31:13;8.80;99.90
871;DHT22;422;51.280;7.236;2023-11-21T09:33:41;8.80;99.90
871;DHT22;422;51.280;7.236;2023-11-21T09:36:12;8.80;99.90
871;DHT22;422;51.280;7.236;2023-11-21T09:38:40;8.90;99.90
871;DHT22;422;51.280;7.236;2023-11-21T09:41:15;8.90;99.90
871;DHT22;422;51.280;7.236;2023-11-21T09:43:47;8.80;99.90
871;DHT22;422;51.280;7.236;2023-11-21T09:46:19;9.00;99.90
871;DHT22;422;51.280;7.236;2023-11-21T09:48:50;9.00;99.90
871;DHT22;422;51.280;7.236;2023-11-21T09:51:20;9.00;99.90
871;DHT22;422;51.280;7.236;2023-11-21T09:53:50;9.00;99.90
871;DHT22;422;51.280;7.236;2023-11-21T09:56:19;9.20;99.90
871;DHT22;422;51.280;7.236;2023-11-21T09:58:52;9.20;99.90
871;DHT22;422;51.280;7.236;2023-11-21T10:01:22;9.20;99.90
871;DHT22;422;51.280;7.236;2023-11-21T10:03:50;9.30;99.90
871;DHT22;422;51.280;7.236;2023-11-21T10:06:19;9.40;99.90
871;DHT22;422;51.280;7.236;2023-11-21T10:08:48;9.30;99.90
871;DHT22;422;51.280;7.236;2023-11-21T10:11:17;9.40;99.90
871;DHT22;422;51.280;7.236;2023-11-21T10:13:48;9.20;99.90
871;DHT22;422;51.280;7.236;2023-11-21T10:16:19;9.20;99.90
871;DHT22;422;51.280;7.236;2023-11-21T10:18:50;9.20;99.90
871;DHT22;422;51.280;7.236;2023-11-21T10:21:21;9.30;99.90
871;DHT22;422;51.280;7.236;2023-11-21T10:23:50;9.20;99.90
871;DHT22;422;51.280;7.236;2023-11-21T10:26:21;9.10;99.90
871;DHT22;422;51.280;7.236;2023-11-21T10:28:56;9.20;99.90
871;DHT22;422;51.280;7.236;2023-11-21T10:31:25;9.30;99.90
871;DHT22;422;51.280;7.236;2023-11-21T10:33:53;9.40;99.90
871;DHT22;422;51.280;7.236;2023-11-21T10:36:27;9.30;99.90
871;DHT22;422;51.280;7.236;2023-11-21T10:38:54;9.50;99.90
871;DHT22;422;51.280;7.236;2023-11-21T10:41:22;9.40;99.90
871;DHT22;422;51.280;7.236;2023-11-21T10:43:53;9.40;99.90
871;DHT22;422;51.280;7.236;2023-11-21T10:46:23;9.40;99.90
871;DHT22;422;51.280;7.236;2023-11-21T10:48:53;9.50;99.90
871;DHT22;422;51.280;7.236;2023-11-21T10:51:22;9.80;99.90
871;DHT22;422;51.280;7.236;2023-11-21T10:53:51;9.80;99.90
871;DHT22;422;51.280;7.236;2023-11-21T10:56:19;9.90;99.90
871;DHT22;422;51.280;7.236;2023-11-21T10:58:50;9.70;99.90
871;DHT22;422;51.280;7.236;2023-11-21T11:01:18;9.70;99.90
871;DHT22;422;51.280;7.236;2023-11-21T11:03:47;9.70;99.90
871;DHT22;422;51.280;7.236;2023-11-21T11:06:15;9.80;99.90
871;DHT22;422;51.280;7.236;2023-11-21T11:08:44;9.80;99.90
871;DHT22;422;51.280;7.236;2023-11-21T11:11:13;9.90;99.90
871;DHT22;422;51.280;7.236;2023-11-21T11:13:43;9.90;99.90
871;DHT22;422;51.280;7.236;2023-11-21T11:16:14;10.00;99.90
871;DHT22;422;51.280;7.236;2023-11-21T11:18:43;10.00;99.90
871;DHT22;422;51.280;7.236;2023-11-21T11:21:23;10.00;99.90
871;DHT22;422;51.280;7.236;2023-11-21T11:24:13;10.30;99.90
871;DHT22;422;51.280;7.236;2023-11-21T11:26:52;10.40;99.90
871;DHT22;422;51.280;7.236;2023-11-21T11:29:30;10.50;99.90
871;DHT22;422;51.280;7.236;2023-11-21T11:32:08;10.60;99.90
871;DHT22;422;51.280;7.236;2023-11-21T11:34:41;10.50;99.90
871;DHT22;422;51.280;7.236;2023-11-21T11:37:11;10.50;99.90
871;DHT22;422;51.280;7.236;2023-11-21T11:39:40;10.50;99.90
871;DHT22;422;51.280;7.236;2023-11-21T11:42:13;10.40;99.90
871;DHT22;422;51.280;7.236;2023-11-21T11:44:51;10.40;99.90
871;DHT22;422;51.280;7.236;2023-11-21T11:47:20;10.60;99.90
871;DHT22;422;51.280;7.236;2023-11-21T11:49:58;10.50;99.90
871;DHT22;422;51.280;7.236;2023-11-21T11:52:33;10.40;99.90
871;DHT22;422;51.280;7.236;2023-11-21T11:55:02;10.40;99.90
871;DHT22;422;51.280;7.236;2023-11-21T11:57:31;10.20;99.90
871;DHT22;422;51.280;7.236;2023-11-21T12:00:14;10.20;99.90
871;DHT22;422;51.280;7.236;2023-11-21T12:02:47;10.20;99.90
871;DHT22;422;51.280;7.236;2023-11-21T12:05:16;10.10;99.90
871;DHT22;422;51.280;7.236;2023-11-21T12:07:49;10.00;99.90
871;DHT22;422;51.280;7.236;2023-11-21T12:10:19;10.00;99.90
871;DHT22;422;51.280;7.236;2023-11-21T12:12:50;10.00;99.90
871;DHT22;422;51.280;7.236;2023-11-21T12:15:19;9.90;99.90
871;DHT22;422;51.280;7.236;2023-11-21T12:17:47;9.80;99.90
871;DHT22;422;51.280;7.236;2023-11-21T12:20:18;9.80;99.90
871;DHT22;422;51.280;7.236;2023-11-21T12:22:47;9.70;99.90
871;DHT22;422;51.280;7.236;2023-11-21T12:25:15;9.70;99.90
871;DHT22;422;51.280;7.236;2023-11-21T12:27:45;9.60;99.90
871;DHT22;422;51.280;7.236;2023-11-21T12:30:14;9.60;99.90
871;DHT22;422;51.280;7.236;2023-11-21T12:32:43;9.70;99.90
871;DHT22;422;51.280;7.236;2023-11-21T12:35:12;9.90;99.90
871;DHT22;422;51.280;7.236;2023-11-21T12:37:40;9.80;99.90
871;DHT22;422;51.280;7.236;2023-11-21T12:40:10;9.80;99.90
871;DHT22;422;51.280;7.236;2023-11-21T12:42:42;9.80;99.90
871;DHT22;422;51.280;7.236;2023-11-21T12:45:21;9.90;99.90
871;DHT22;422;51.280;7.236;2023-11-21T12:47:53;9.90;99.90
871;DHT22;422;51.280;7.236;2023-11-21T12:50:23;9.90;99.90
871;DHT22;422;51.280;7.236;2023-11-21T12:52:57;9.80;99.90
871;DHT22;422;51.280;7.236;2023-11-21T12:55:25;9.60;99.90
871;DHT22;422;51.280;7.236;2023-11-21T12:57:53;9.70;99.90
871;DHT22;422;51.280;7.236;2023-11-21T13:00:31;9.70;99.90
871;DHT22;422;51.280;7.236;2023-11-21T13:03:00;9.80;99.90
871;DHT22;422;51.280;7.236;2023-11-21T13:05:28;9.80;99.90
871;DHT22;422;51.280;7.236;2023-11-21T13:07:57;9.80;99.90
871;DHT22;422;51.280;7.236;2023-11-21T13:10:26;9.60;99.90
871;DHT22;422;51.280;7.236;2023-11-21T13:12:57;9.50;99.90
871;DHT22;422;51.280;7.236;2023-11-21T13:15:27;9.50;99.90
871;DHT22;422;51.280;7.236;2023-11-21T13:17:57;9.50;99.90
871;DHT22;422;51.280;7.236;2023-11-21T13:20:25;9.40;99.90
871;DHT22;422;51.280;7.236;2023-11-21T13:22:53;9.40;99.90
871;DHT22;422;51.280;7.236;2023-11-21T13:25:21;9.40;99.90
871;DHT22;422;51.280;7.236;2023-11-21T13:27:48;9.50;99.90
871;DHT22;422;51.280;7.236;2023-11-21T13:30:16;9.50;99.90
871;DHT22;422;51.280;7.236;2023-11-21T13:32:50;9.50;99.90
871;DHT22;422;51.280;7.236;2023-11-21T13:35:18;9.40;99.90
871;DHT22;422;51.280;7.236;2023-11-21T13:38:02;9.40;99.90
871;DHT22;422;51.280;7.236;2023-11-21T13:40:30;9.50;99.90
871;DHT22;422;51.280;7.236;2023-11-21T13:42:57;9.40;99.90
871;DHT22;422;51.280;7.236;2023-11-21T13:45:25;9.40;99.90
871;DHT22;422;51.280;7.236;2023-11-21T13:47:55;9.30;99.90
871;DHT22;422;51.280;7.236;2023-11-21T13:50:25;9.20;99.90
871;DHT22;422;51.280;7.236;2023-11-21T13:52:58;9.30;99.90
871;DHT22;422;51.280;7.236;2023-11-21T13:55:30;9.30;99.90
871;DHT22;422;51.280;7.236;2023-11-21T13:57:57;9.20;99.90
871;DHT22;422;51.280;7.236;2023-11-21T14:00:25;9.10;99.90
871;DHT22;422;51.280;7.236;2023-11-21T14:03:13;9.10;99.90
871;DHT22;422;51.280;7.236;2023-11-21T14:05:47;8.90;99.90
871;DHT22;422;51.280;7.236;2023-11-21T14:08:18;8.80;99.90
871;DHT22;422;51.280;7.236;2023-11-21T14:10:47;8.80;99.90
871;DHT22;422;51.280;7.236;2023-11-21T14:13:21;8.70;99.90
871;DHT22;422;51.280;7.236;2023-11-21T14:15:49;8.80;99.90
871;DHT22;422;51.280;7.236;2023-11-21T14:18:25;8.80;99.90
871;DHT22;422;51.280;7.236;2023-11-21T14:20:56;8.70;99.90
871;DHT22;422;51.280;7.236;2023-11-21T14:23:23;8.80;99.90
871;DHT22;422;51.280;7.236;2023-11-21T14:25:51;8.70;99.90
871;DHT22;422;51.280;7.236;2023-11-21T14:28:18;8.70;99.90
871;DHT22;422;51.280;7.236;2023-11-21T14:30:46;8.60;99.90
871;DHT22;422;51.280;7.236;2023-11-21T14:33:13;8.60;99.90
871;DHT22;422;51.280;7.236;2023-11-21T14:35:45;8.60;99.90
871;DHT22;422;51.280;7.236;2023-11-21T14:38:13;8.70;99.90
871;DHT22;422;51.280;7.236;2023-11-21T14:40:40;8.80;99.90
871;DHT22;422;51.280;7.236;2023-11-21T14:43:09;8.80;99.90
871;DHT22;422;51.280;7.236;2023-11-21T14:45:36;8.70;99.90
871;DHT22;422;51.280;7.236;2023-11-21T14:48:04;8.70;99.90
871;DHT22;422;51.280;7.236;2023-11-21T14:50:42;8.70;99.90
871;DHT22;422;51.280;7.236;2023-11-21T14:53:37;8.70;99.90
871;DHT22;422;51.280;7.236;2023-11-21T14:56:19;8.60;99.90
871;DHT22;422;51.280;7.236;2023-11-21T14:58:53;8.60;99.90
871;DHT22;422;51.280;7.236;2023-11-21T15:01:23;8.70;99.90
871;DHT22;422;51.280;7.236;2023-11-21T15:04:03;8.60;99.90
871;DHT22;422;51.280;7.236;2023-11-21T15:06:32;8.60;99.90
871;DHT22;422;51.280;7.236;2023-11-21T15:09:01;8.40;99.90
871;DHT22;422;51.280;7.236;2023-11-21T15:11:47;8.40;99.90
871;DHT22;422;51.280;7.236;2023-11-21T15:14:14;8.30;99.90
871;DHT22;422;51.280;7.236;2023-11-21T15:16:47;8.30;99.90
871;DHT22;422;51.280;7.236;2023-11-21T15:19:18;8.30;99.90
871;DHT22;422;51.280;7.236;2023-11-21T15:21:51;8.40;99.90
871;DHT22;422;51.280;7.236;2023-11-21T15:24:20;8.40;99.90
871;DHT22;422;51.280;7.236;2023-11-21T15:26:47;8.40;99.90
871;DHT22;422;51.280;7.236;2023-11-21T15:29:15;8.40;99.90
871;DHT22;422;51.280;7.236;2023-11-21T15:31:44;8.40;99.90
871;DHT22;422;51.280;7.236;2023-11-21T15:34:14;8.40;99.90
871;DHT22;422;51.280;7.236;2023-11-21T15:36:42;8.40;99.90
871;DHT22;422;51.280;7.236;2023-11-21T15:39:08;8.30;99.90
871;DHT22;422;51.280;7.236;2023-11-21T15:41:38;8.30;99.90
871;DHT22;422;51.280;7.236;2023-11-21T15:44:07;8.30;99.90
871;DHT22;422;51.280;7.236;2023-11-21T15:46:37;8.30;99.90
871;DHT22;422;51.280;7.236;2023-11-21T15:49:07;8.30;99.90
871;DHT22;422;51.280;7.236;2023-11-21T15:51:39;8.20;99.90
871;DHT22;422;51.280;7.236;2023-11-21T15:54:07;8.30;99.90
871;DHT22;422;51.280;7.236;2023-11-21T15:56:34;8.20;99.90
871;DHT22;422;51.280;7.236;2023-11-21T15:59:03;8.20;99.90
871;DHT22;422;51.280;7.236;2023-11-21T16:01:30;8.20;99.90
871;DHT22;422;51.280;7.236;2023-11-21T16:03:58;8.10;99.90
871;DHT22;422;51.280;7.236;2023-11-21T16:06:27;8.10;99.90
871;DHT22;422;51.280;7.236;2023-11-21T16:08:55;8.20;99.90
871;DHT22;422;51.280;7.236;2023-11-21T16:11:25;8.10;99.90
871;DHT22;422;51.280;7.236;2023-11-21T16:13:55;8.00;99.90
871;DHT22;422;51.280;7.236;2023-11-21T16:16:24;8.00;99.90
871;DHT22;422;51.280;7.236;2023-11-21T16:18:52;7.90;99.90
871;DHT22;422;51.280;7.236;2023-11-21T16:21:19;7.90;99.90
871;DHT22;422;51.280;7.236;2023-11-21T16:23:47;8.00;99.90
871;DHT22;422;51.280;7.236;2023-11-21T16:26:14;7.90;99.90
871;DHT22;422;51.280;7.236;2023-11-21T16:28:43;7.90;99.90
871;DHT22;422;51.280;7.236;2023-11-21T16:31:11;7.90;99.90
871;DHT22;422;51.280;7.236;2023-11-21T16:33:40;7.90;99.90
871;DHT22;422;51.280;7.236;2023-11-21T16:36:07;7.90;99.90
871;DHT22;422;51.280;7.236;2023-11-21T16:38:35;7.90;99.90
871;DHT22;422;51.280;7.236;2023-11-21T16:41:02;7.70;99.90
871;DHT22;422;51.280;7.236;2023-11-21T16:43:29;7.60;99.90
871;DHT22;422;51.280;7.236;2023-11-21T16:45:57;7.50;99.90
871;DHT22;422;51.280;7.236;2023-11-21T16:48:25;7.50;99.90
871;DHT22;422;51.280;7.236;2023-11-21T16:50:53;7.40;99.90
871;DHT22;422;51.280;7.236;2023-11-21T16:53:20;7.30;99.90
871;DHT22;422;51.280;7.236;2023-11-21T16:55:48;7.30;99.90
871;DHT22;422;51.280;7.236;2023-11-21T16:58:15;7.30;99.90
871;DHT22;422;51.280;7.236;2023-11-21T17:00:42;7.20;99.90
871;DHT22;422;51.280;7.236;2023-11-21T17:03:12;7.10;99.90